Highlands Peak, California Weather observations

Data are for observation ending at time listed.
 Day   Time    Ave.   Ave.  Ave.  Vector   Max.   Stn.    Total    Solar   Ave.  
  of    of     Air    Rel.  Wind   Wind    Wind   Baro.  Precip.   Rad.    Soil  
Year   Day     Temp.  Hum.  Speed  Dir.    Gust   Pres.                    Temp. 
2016   (PST)    F      %     mph   deg.    mph     mb.     in.     W/m2     F   
------------------------------------------------------------------------------
 121    0:00   41.2    91    6.5   256     10.6   925.6    0.00       0    63.2
 121    0:10   41.0    93    6.2   254      9.8   925.4    0.00       0    62.9
 121    0:20   40.7    94    3.6   250      7.8   925.3    0.00       0    62.8
 121    0:30   40.3    94    4.4   220      7.5   925.2    0.00       0    62.8
 121    0:40   41.0    93    3.6   194      7.4   925.1    0.00       0    62.8
 121    0:50   42.0    89    3.3   256      8.3   925.1    0.00       0    62.6
 121    1:00   41.2    91    3.5   130     11.2   925.0    0.00       0    62.5
 121    1:10   46.0    75    6.9   344     13.4   924.9    0.00       0    62.3
 121    1:20   49.5    63    7.3   354     17.8   924.8    0.00       0    62.0
 121    1:30   51.5    57    9.0   354     18.8   924.8    0.00       0    61.7
 121    1:40   52.1    56   10.7   352     21.5   924.7    0.00       0    61.6
 121    1:50   52.9    55   11.4   340     28.9   924.7    0.00       0    61.3
 121    2:00   53.2    55    9.6   351     17.4   924.7    0.00       0    61.2
 121    2:10   53.2    55   11.1   343     20.8   924.6    0.00       0    61.1
 121    2:20   54.0    53   13.3   342     27.1   924.6    0.00       0    60.9
 121    2:30   54.3    52   11.7   338     21.2   924.6    0.00       0    60.8
 121    2:40   54.8    49   15.2   340     28.8   924.4    0.00       0    60.8
 121    2:50   55.2    47   14.2   336     29.1   924.5    0.00       0    60.6
 121    3:00   55.0    47   12.6   330     27.0   924.5    0.00       0    60.5
 121    3:10   54.6    47   11.2   322     23.8   924.4    0.00       0    60.4
 121    3:20   54.0    48   11.8   306     20.2   924.4    0.00       0    60.4
 121    3:30   53.9    46   11.6   313     26.5   924.4    0.00       0    60.2
 121    3:40   54.3    44   10.7   332     21.1   924.3    0.00       0    60.1
 121    3:50   54.6    42   11.2   344     22.5   924.3    0.00       0    60.1
 121    4:00   53.9    45    9.6   356     16.5   924.3    0.00       0    60.1
 121    4:10   53.8    44    8.1   339     16.4   924.2    0.00       0    60.0
 121    4:20   53.7    44   10.2   351     18.5   924.1    0.00       0    59.9
 121    4:30   53.8    44   13.9   347     28.3   924.0    0.00       0    59.6
 121    4:40   53.4    44    7.5   352     21.6   924.1    0.00       0    59.4
 121    4:50   53.1    45    8.4   336     27.0   924.1    0.00       0    59.4
 121    5:00   52.7    45    7.9   322     26.5   924.1    0.00       0    59.3
 121    5:10   52.7    44    8.9   299     20.2   924.0    0.00       1    59.2
 121    5:20   53.0    41   10.9   325     34.1   924.0    0.00       4    59.0
 121    5:30   53.4    38    6.7   294     23.0   924.1    0.00       9    58.9
 121    5:40   53.6    36    5.8    23     15.8   924.3    0.00      15    58.9
 121    5:50   53.2    40    4.8   190     11.8   924.5    0.00      20    58.9
 121    6:00   51.1    46    7.6   124     18.5   924.5    0.00      24    58.8
 121    6:10   52.7    40    5.6    96     12.6   924.5    0.00      41    58.7
 121    6:20   53.1    40    5.4    58     17.2   924.6    0.00     197    58.6
 121    6:30   54.2    38    4.1    61     11.4   924.8    0.00     236    58.5
 121    6:40   54.0    39    5.4   292     14.0   924.9    0.00     277    58.4
 121    6:50   53.9    41    5.2   198      9.6   925.0    0.00     319    58.3
 121    7:00   53.3    44    6.8   202     11.5   925.1    0.00     351    58.2
 121    7:10   53.4    45    6.9   168     13.1   925.1    0.00     398    58.2
 121    7:20   55.8    34    6.3    42     18.3   925.1    0.00     439    58.2
 121    7:30   56.8    32    6.2   355     15.5   925.1    0.00     478    58.2
 121    7:40   57.9    32    6.0    61     20.0   925.1    0.00     515    58.2
 121    7:50   56.8    36    6.3   226     20.6   925.2    0.00     553    58.2
 121    8:00   57.1    40    4.8   207     11.5   925.3    0.00     589    58.2
 121    8:10   55.5    41    8.3   250     12.3   925.3    0.00     625    58.3
 121    8:20   55.1    43    7.0   256     11.1   925.2    0.00     661    58.3
 121    8:30   55.6    43    5.3   277     10.9   925.3    0.00     693    58.4
 121    8:40   56.0    42    5.4   278      9.1   925.3    0.00     727    58.6
 121    8:50   56.2    42    7.2   275     11.0   925.3    0.00     762    58.7
 121    9:00   57.3    40    8.8   283     11.8   925.3    0.00     796    58.9
 121    9:10   58.7    36    6.9   309     12.3   925.3    0.00     829    59.1
 121    9:20   59.7    34    7.1   299     14.4   925.3    0.00     857    59.3
 121    9:30   60.0    32    8.1   331     14.3   925.3    0.00     881    59.6
 121    9:40   60.8    33    6.5   314     10.4   925.2    0.00     904    59.8
 121    9:50   60.7    36    5.8   295     10.9   925.2    0.00     927    60.1
 121   10:00   61.4    36    4.2   304     10.0   925.2    0.00     948    60.4
 121   10:10   62.3    31    3.6   343      8.3   925.1    0.00     966    60.7
 121   10:20   63.4    40    3.7   241      6.9   925.1    0.00     979    61.0
 121   10:30   63.9    38    3.7   194      7.5   925.0    0.00     995    61.3
 121   10:40   63.5    36    4.2   224      7.3   925.1    0.00    1008    61.6
 121   10:50   63.1    38    3.2   206      7.5   925.0    0.00    1021    61.9
 121   11:00   63.7    39    4.5   221      9.1   924.9    0.00    1030    62.2
 121   11:10   62.8    36    7.9   191     12.9   924.9    0.00    1036    62.6
 121   11:20   61.8    33    5.7   202     10.1   924.9    0.00    1040    63.0
 121   11:30   62.4    33    4.0   194      9.1   924.8    0.00    1045    63.3
 121   11:40   62.2    32    4.4   188      8.8   924.7    0.00    1047    63.6
 121   11:50   62.6    32    4.8   195     11.1   924.6    0.00    1050    64.0
 121   12:00   63.4    33    4.4   198      8.0   924.5    0.00    1048    64.3
 121   12:10   64.3    38    3.1   216      7.9   924.5    0.00    1048    64.6
 121   12:20   63.8    41    3.4   230      7.7   924.5    0.00    1044    64.8
 121   12:30   64.1    41    3.8   251      7.6   924.5    0.00    1039    65.1
 121   12:40   62.9    43    3.0   228      6.2   924.4    0.00    1031    65.4
 121   12:50   64.4    46    4.5   253      8.2   924.4    0.00    1021    65.7
 121   13:00   63.4    48    3.6   261      6.7   924.4    0.00    1010    66.0
 121   13:10   63.3    39    3.9   213      7.6   924.4    0.00    1002    66.4
 121   13:20   63.7    37    3.9   192      7.4   924.3    0.00     989    66.8
 121   13:30   64.3    42    4.5   261      7.3   924.3    0.00     973    67.2
 121   13:40   65.4    44    5.3   266      8.1   924.3    0.00     956    67.5
 121   13:50   64.1    49    5.3   264      8.1   924.3    0.00     913    67.9
 121   14:00   64.1    46    4.2   266      8.2   924.3    0.00     919    68.3
 121   14:10   64.3    43    5.6   266      7.8   924.3    0.00     894    68.7
 121   14:20   63.8    44    5.9   272      9.8   924.3    0.00     875    69.1
 121   14:30   63.7    36    4.4   253      7.7   924.2    0.00     851    69.5
 121   14:40   65.3    37    3.8   262      7.8   924.1    0.00     826    69.8
 121   14:50   66.1    37    5.5   262      9.1   924.1    0.00     798    70.2
 121   15:00   65.3    38    4.7   256      7.5   924.0    0.00     771    70.6
 121   15:10   65.2    40    5.4   266      8.8   923.9    0.00     743    70.8
 121   15:20   65.0    39    3.9   266      6.6   923.9    0.00     716    71.1
 121   15:30   65.8    38    3.7   262      6.6   923.8    0.00     685    71.5
 121   15:40   66.2    37    3.2   271      6.8   923.8    0.00     652    71.7
 121   15:50   67.8    30    3.4   211      7.5   923.9    0.00     617    72.0
 121   16:00   66.5    26    3.8   205      7.0   923.9    0.00     583    72.4
 121   16:10   67.1    30    4.5   244      8.3   923.9    0.00     549    72.6
 121   16:20   66.6    34    3.8   269      7.0   923.9    0.00     513    72.8
 121   16:30   66.1    34    2.8   251      5.4   923.9    0.00     476    72.9
 121   16:40   66.2    34    2.2   268      4.7   923.9    0.00     441    73.0

Return to Highlands Peak graphs page.


Western Regional Climate Center,wrcc@dri.edu